Terminal Aerodrome Forecast
Issued by NWS Upton, NY

Home | Current Version | Previous Version | Text Only | Print | Product List | Glossary On
Versions: 1 2 3 4 5 6 7 8 9 10 11 12 13 14 15 16 17 18 19 20 21 22 23 24 25 26 27 28 29 30 31 32
919
FTUS41 KOKX 180249 AAB
TAFEWR
TAF AMD
KEWR 180249Z 1803/1906 VRB04KT P6SM BKN020 OVC100
      TEMPO 1803/1805 BKN015
     FM180500 VRB03KT P6SM BKN015
      TEMPO 1805/1809 6SM -SNPLRA SCT008 BKN010
     FM180900 VRB03KT P6SM BKN015
      TEMPO 1809/1812 6SM -FZRA SCT008 BKN015
     FM181400 VRB04KT P6SM SCT020 BKN080
     FM181700 27006KT P6SM FEW020 SCT250
     FM182200 25007KT P6SM FEW250
     FM190100 23008KT P6SM BKN060=

USA.gov is the U.S. government's official web portal to all federal, state and local government web resources and services.